Time;durP1;ratioP1;P1;durP2;ratioP2;P2;SDS_P1;SDS_P2;PMS_P1;PMS_P2;Temp;Humidity;BMP_temperature;BMP_pressure;BME280_temperature;BME280_humidity;BME280_pressure;Samples;Min_cycle;Max_cycle;Signal;HPM_P1;HPM_P2
2023/05/28 00:00:13;;;;;;;11.03;10.63;;;12.60;99.90;;;;;;5045836;28;20464;-68
2023/05/28 00:02:41;;;;;;;10.20;9.80;;;12.60;99.90;;;;;;5036053;28;20896;-68
2023/05/28 00:05:10;;;;;;;10.37;9.97;;;12.50;99.90;;;;;;5034667;28;20968;-68
2023/05/28 00:07:41;;;;;;;11.10;10.70;;;12.50;99.90;;;;;;5044589;28;20464;-68
2023/05/28 00:10:10;;;;;;;10.87;10.47;;;12.50;99.90;;;;;;5038090;28;20564;-68
2023/05/28 00:12:38;;;;;;;10.77;10.37;;;12.40;99.90;;;;;;5039465;28;20471;-68
2023/05/28 00:15:06;;;;;;;10.07;9.77;;;12.40;99.90;;;;;;5035183;28;20550;-68
2023/05/28 00:17:33;;;;;;;10.43;10.03;;;12.30;99.90;;;;;;5033670;28;20475;-68
2023/05/28 00:20:00;;;;;;;10.70;10.30;;;12.30;99.90;;;;;;5042598;28;20591;-68
2023/05/28 00:22:29;;;;;;;10.87;10.47;;;12.30;99.90;;;;;;5028204;28;20460;-68
2023/05/28 00:24:56;;;;;;;11.63;11.23;;;12.20;99.90;;;;;;5038166;28;20468;-68
2023/05/28 00:27:24;;;;;;;11.30;10.90;;;12.10;99.90;;;;;;5041610;28;21278;-68
2023/05/28 00:29:50;;;;;;;11.30;10.90;;;12.10;99.90;;;;;;5047849;28;20468;-68
2023/05/28 00:32:18;;;;;;;10.97;10.57;;;12.10;99.90;;;;;;5048560;28;20509;-69
2023/05/28 00:34:44;;;;;;;10.67;10.27;;;12.00;99.90;;;;;;5042242;28;20537;-68
2023/05/28 00:37:11;;;;;;;10.37;9.97;;;12.00;99.90;;;;;;5041906;28;20468;-68
2023/05/28 00:39:41;;;;;;;10.63;10.23;;;12.00;99.90;;;;;;5038080;28;20475;-68
2023/05/28 00:42:10;;;;;;;11.10;10.70;;;11.90;99.90;;;;;;5039801;28;20464;-68
2023/05/28 00:44:38;;;;;;;10.23;9.87;;;11.90;99.90;;;;;;5043811;28;20476;-68
2023/05/28 00:47:06;;;;;;;10.47;10.07;;;12.00;99.90;;;;;;5038502;28;21240;-68
2023/05/28 00:49:33;;;;;;;9.97;9.67;;;11.90;99.90;;;;;;5042965;28;20963;-67
2023/05/28 00:52:02;;;;;;;10.37;9.97;;;11.80;99.90;;;;;;5039608;28;20547;-68
2023/05/28 00:54:30;;;;;;;9.70;9.40;;;11.70;99.90;;;;;;5041884;28;20464;-68
2023/05/28 00:57:00;;;;;;;10.37;9.97;;;11.60;99.90;;;;;;5041259;28;20502;-68
2023/05/28 00:59:28;;;;;;;10.50;10.10;;;11.60;99.90;;;;;;5037258;28;20482;-68
2023/05/28 01:01:56;;;;;;;10.37;9.97;;;11.50;99.90;;;;;;5036555;28;20652;-68
2023/05/28 01:04:24;;;;;;;9.73;9.43;;;11.40;99.90;;;;;;5041484;28;20471;-68
2023/05/28 01:06:51;;;;;;;9.83;9.53;;;11.30;99.90;;;;;;5041639;28;20463;-68
2023/05/28 01:09:19;;;;;;;10.20;9.80;;;11.20;99.90;;;;;;5033809;28;20452;-68
2023/05/28 01:11:51;;;;;;;9.57;9.27;;;11.10;99.90;;;;;;5040688;28;20451;-68
2023/05/28 01:14:20;;;;;;;9.77;9.43;;;11.00;99.90;;;;;;5033291;28;20463;-68
2023/05/28 01:16:48;;;;;;;9.30;9.00;;;11.00;99.90;;;;;;5032720;28;20582;-68
2023/05/28 01:19:18;;;;;;;9.40;9.10;;;11.10;99.90;;;;;;5045421;28;20480;-68
2023/05/28 01:21:47;;;;;;;9.40;9.10;;;10.90;99.90;;;;;;5042598;28;20874;-67
2023/05/28 01:24:16;;;;;;;9.10;8.80;;;10.90;99.90;;;;;;5033538;28;20543;-68
2023/05/28 01:26:44;;;;;;;9.70;9.40;;;10.90;99.90;;;;;;5040772;28;20538;-68
2023/05/28 01:29:17;;;;;;;9.80;9.50;;;10.80;99.90;;;;;;5047626;28;21067;-68
2023/05/28 01:31:45;;;;;;;9.90;9.60;;;10.70;99.90;;;;;;5042316;28;20476;-68
2023/05/28 01:34:13;;;;;;;9.60;9.30;;;10.60;99.90;;;;;;5040729;28;20467;-68
2023/05/28 01:36:45;;;;;;;11.00;10.60;;;10.50;99.90;;;;;;5041771;28;20484;-68
2023/05/28 01:39:16;;;;;;;10.50;10.10;;;10.30;99.90;;;;;;5044709;28;20546;-68
2023/05/28 01:41:44;;;;;;;9.97;9.63;;;10.30;99.90;;;;;;5027839;28;20522;-68
2023/05/28 01:44:12;;;;;;;10.73;10.33;;;10.20;99.90;;;;;;5040782;28;20525;-68
2023/05/28 01:46:40;;;;;;;11.10;10.70;;;10.10;99.90;;;;;;5044465;28;20475;-68
2023/05/28 01:49:07;;;;;;;9.67;9.37;;;10.10;99.90;;;;;;5046178;28;20464;-67
2023/05/28 01:51:34;;;;;;;10.30;9.90;;;10.00;99.90;;;;;;5042254;28;20517;-67
2023/05/28 01:54:02;;;;;;;9.50;9.20;;;10.00;99.90;;;;;;5037273;28;20691;-67
2023/05/28 01:56:30;;;;;;;9.70;9.40;;;9.90;99.90;;;;;;5044741;28;21071;-68
2023/05/28 01:58:58;;;;;;;10.10;9.70;;;9.80;99.90;;;;;;5036450;28;20563;-68
2023/05/28 02:01:29;;;;;;;9.80;9.50;;;9.70;99.90;;;;;;5039024;28;20471;-68
2023/05/28 02:03:57;;;;;;;9.80;9.40;;;9.70;99.90;;;;;;5041232;28;20472;-68
2023/05/28 02:06:24;;;;;;;8.40;8.10;;;9.70;99.90;;;;;;5031353;28;20491;-68
2023/05/28 02:08:52;;;;;;;9.70;9.40;;;9.70;99.90;;;;;;5037911;28;20559;-68
2023/05/28 02:11:19;;;;;;;9.57;9.27;;;9.60;99.90;;;;;;5034586;28;20973;-68
2023/05/28 02:13:48;;;;;;;9.43;9.13;;;9.60;99.90;;;;;;5037125;28;21106;-68
2023/05/28 02:16:17;;;;;;;10.20;9.80;;;9.50;99.90;;;;;;5046977;28;20527;-68
2023/05/28 02:18:45;;;;;;;9.60;9.30;;;9.40;99.90;;;;;;5039482;28;20495;-68
2023/05/28 02:21:13;;;;;;;9.43;9.13;;;9.40;99.90;;;;;;5039808;28;20490;-67
2023/05/28 02:23:41;;;;;;;9.13;8.83;;;9.40;99.90;;;;;;5039121;28;20467;-68
2023/05/28 02:26:08;;;;;;;9.43;9.13;;;9.30;99.90;;;;;;5044743;28;20464;-67
2023/05/28 02:28:34;;;;;;;10.10;9.70;;;9.30;99.90;;;;;;5040568;28;20507;-68
2023/05/28 02:31:03;;;;;;;9.70;9.40;;;9.30;99.90;;;;;;5041961;28;20518;-68
2023/05/28 02:33:32;;;;;;;9.73;9.43;;;9.30;99.90;;;;;;5044761;28;20463;-67
2023/05/28 02:35:59;;;;;;;9.40;9.10;;;9.30;99.90;;;;;;5037891;28;20595;-68
2023/05/28 02:38:25;;;;;;;9.50;9.20;;;9.20;99.90;;;;;;5033851;28;20465;-68
2023/05/28 02:40:52;;;;;;;12.53;12.03;;;9.20;99.90;;;;;;5047031;28;20498;-68
2023/05/28 02:43:19;;;;;;;10.23;9.83;;;9.10;99.90;;;;;;5038569;28;20461;-68
2023/05/28 02:45:45;;;;;;;9.60;9.30;;;9.10;99.90;;;;;;5047272;28;20506;-68
2023/05/28 02:48:15;;;;;;;9.80;9.50;;;9.20;99.90;;;;;;5047191;28;20529;-68
2023/05/28 02:50:41;;;;;;;10.70;10.30;;;9.20;99.90;;;;;;5042801;28;20463;-67
2023/05/28 02:53:08;;;;;;;9.97;9.67;;;9.10;99.90;;;;;;5040013;28;20950;-68
2023/05/28 02:55:36;;;;;;;9.53;9.23;;;9.10;99.90;;;;;;5045208;28;20573;-67
2023/05/28 02:58:02;;;;;;;10.70;10.30;;;9.00;99.90;;;;;;5048453;28;20998;-68
2023/05/28 03:00:29;;;;;;;11.20;10.80;;;9.00;99.90;;;;;;5045539;28;20467;-68
2023/05/28 03:02:57;;;;;;;10.40;10.00;;;8.90;99.90;;;;;;5034723;28;20472;-68
2023/05/28 03:05:25;;;;;;;10.73;10.33;;;8.90;99.90;;;;;;5041068;28;20951;-67
2023/05/28 03:07:51;;;;;;;11.00;10.60;;;8.90;99.90;;;;;;5045471;28;20467;-68
2023/05/28 03:10:18;;;;;;;10.77;10.37;;;8.90;99.90;;;;;;5040069;28;20467;-68
2023/05/28 03:12:45;;;;;;;10.17;9.77;;;8.80;99.90;;;;;;5043274;28;20464;-68
2023/05/28 03:15:14;;;;;;;11.07;10.67;;;8.80;99.90;;;;;;5043534;28;20447;-67
2023/05/28 03:17:41;;;;;;;10.80;10.40;;;8.80;99.90;;;;;;5043853;28;20461;-68
2023/05/28 03:20:09;;;;;;;13.90;13.30;;;8.80;99.90;;;;;;5050356;28;20983;-68
2023/05/28 03:22:39;;;;;;;10.90;10.50;;;8.80;99.90;;;;;;5034664;28;20682;-67
2023/05/28 03:25:08;;;;;;;11.03;10.63;;;8.70;99.90;;;;;;5043221;28;20463;-68
2023/05/28 03:27:35;;;;;;;11.37;10.87;;;8.60;99.90;;;;;;5046488;28;20509;-68
2023/05/28 03:30:03;;;;;;;10.60;10.20;;;8.60;99.90;;;;;;5045326;28;20525;-68
2023/05/28 03:32:30;;;;;;;10.97;10.57;;;8.60;99.90;;;;;;5044154;28;20490;-68
2023/05/28 03:34:56;;;;;;;11.00;10.60;;;8.60;99.90;;;;;;5036708;28;20466;-68
2023/05/28 03:37:26;;;;;;;10.60;10.20;;;8.60;99.90;;;;;;5046190;28;20892;-67
2023/05/28 03:39:55;;;;;;;10.33;9.93;;;8.50;99.90;;;;;;5046495;28;20448;-68
2023/05/28 03:42:21;;;;;;;13.23;12.73;;;8.50;99.90;;;;;;5043832;28;20472;-68
2023/05/28 03:44:49;;;;;;;10.47;10.07;;;8.50;99.90;;;;;;5046067;28;20983;-67
2023/05/28 03:47:16;;;;;;;10.30;9.90;;;8.50;99.90;;;;;;5048243;28;20460;-68
2023/05/28 03:49:42;;;;;;;13.17;12.30;;;8.50;99.90;;;;;;5038372;28;20453;-67
2023/05/28 03:52:10;;;;;;;9.63;9.33;;;8.50;99.90;;;;;;5035784;28;20870;-67
2023/05/28 03:54:37;;;;;;;10.00;9.60;;;8.50;99.90;;;;;;5036583;28;20545;-67
2023/05/28 03:57:06;;;;;;;9.60;9.30;;;8.40;99.90;;;;;;5043093;28;20479;-67
2023/05/28 03:59:34;;;;;;;9.63;9.33;;;8.40;99.90;;;;;;5038029;28;20511;-67
2023/05/28 04:02:02;;;;;;;9.57;9.27;;;8.40;99.90;;;;;;5034432;28;20822;-67
2023/05/28 04:04:29;;;;;;;9.37;9.07;;;8.40;99.90;;;;;;5036768;28;20465;-67
2023/05/28 04:06:56;;;;;;;9.43;9.13;;;8.40;99.90;;;;;;5041859;28;20874;-68
2023/05/28 04:09:23;;;;;;;9.50;9.20;;;8.40;99.90;;;;;;5038191;28;20548;-68
2023/05/28 04:11:50;;;;;;;11.50;11.00;;;8.50;99.90;;;;;;5032272;28;20518;-68
2023/05/28 04:14:19;;;;;;;9.50;9.20;;;8.50;99.90;;;;;;5044937;28;20985;-68
2023/05/28 04:16:46;;;;;;;9.37;9.07;;;8.50;99.90;;;;;;5039303;28;20550;-68
2023/05/28 04:19:13;;;;;;;9.70;9.40;;;8.60;99.90;;;;;;5040412;28;20503;-68
2023/05/28 04:21:40;;;;;;;9.77;9.43;;;8.60;99.90;;;;;;5041944;28;20955;-69
2023/05/28 04:24:07;;;;;;;10.57;10.17;;;8.70;99.90;;;;;;5040648;28;20960;-67
2023/05/28 04:26:35;;;;;;;10.17;9.77;;;8.80;99.90;;;;;;5037603;28;20479;-67
2023/05/28 04:29:02;;;;;;;9.60;9.30;;;9.00;99.90;;;;;;5042674;28;20476;-68
2023/05/28 04:31:31;;;;;;;9.70;9.40;;;9.10;99.90;;;;;;5035755;28;20761;-68
2023/05/28 04:33:57;;;;;;;10.03;9.63;;;9.30;99.90;;;;;;5039365;28;20456;-68
2023/05/28 04:36:29;;;;;;;9.40;9.10;;;9.30;99.90;;;;;;5030646;28;21037;-67
2023/05/28 04:38:56;;;;;;;9.50;9.20;;;9.50;99.90;;;;;;5035029;28;20468;-68
2023/05/28 04:41:25;;;;;;;9.83;9.50;;;9.60;99.90;;;;;;5037564;28;20465;-68
2023/05/28 04:43:52;;;;;;;10.00;9.60;;;9.70;99.90;;;;;;5032145;28;20922;-68
2023/05/28 04:46:19;;;;;;;9.30;9.00;;;9.90;99.90;;;;;;5038418;28;20982;-68
2023/05/28 04:48:47;;;;;;;8.80;8.50;;;10.00;99.90;;;;;;5046601;28;20478;-68
2023/05/28 04:51:14;;;;;;;9.20;8.90;;;10.30;99.90;;;;;;5036239;28;20884;-68
2023/05/28 04:53:41;;;;;;;8.80;8.50;;;10.40;99.90;;;;;;5040276;28;20468;-68
2023/05/28 04:56:08;;;;;;;9.07;8.77;;;10.50;99.90;;;;;;5036840;28;20851;-68
2023/05/28 04:58:36;;;;;;;9.47;9.17;;;10.60;99.90;;;;;;5040683;28;20512;-68
2023/05/28 05:01:04;;;;;;;8.77;8.47;;;10.60;99.90;;;;;;5034580;28;20539;-68
2023/05/28 05:03:32;;;;;;;9.10;8.80;;;10.70;99.90;;;;;;5033452;28;20880;-68
2023/05/28 05:06:01;;;;;;;9.77;9.37;;;10.80;99.90;;;;;;5031075;28;20475;-68
2023/05/28 05:08:28;;;;;;;8.50;8.20;;;10.80;99.90;;;;;;5046537;28;20681;-69
2023/05/28 05:10:54;;;;;;;8.70;8.40;;;10.90;99.90;;;;;;5033423;28;21149;-68
2023/05/28 05:13:36;;;;;;;8.80;8.50;;;10.90;99.90;;;;;;5034174;28;20468;-68
2023/05/28 05:16:02;;;;;;;8.70;8.40;;;11.00;99.90;;;;;;5042228;28;20490;-68
2023/05/28 05:18:30;;;;;;;8.10;7.80;;;11.10;99.90;;;;;;5041865;28;20452;-69
2023/05/28 05:20:57;;;;;;;8.53;8.23;;;11.20;99.90;;;;;;5030903;28;20487;-68
2023/05/28 05:23:25;;;;;;;8.47;8.17;;;11.30;99.90;;;;;;5038150;28;20459;-68
2023/05/28 05:25:52;;;;;;;7.93;7.63;;;11.40;99.90;;;;;;5034559;28;20460;-68
2023/05/28 05:28:19;;;;;;;8.37;8.07;;;11.50;99.90;;;;;;5037175;28;20991;-68
2023/05/28 05:30:47;;;;;;;8.30;8.00;;;11.70;99.90;;;;;;5046498;28;20513;-69
2023/05/28 05:33:14;;;;;;;8.53;8.23;;;11.90;99.90;;;;;;5035592;28;20891;-68
2023/05/28 05:35:43;;;;;;;7.60;7.40;;;12.20;99.90;;;;;;5040172;28;20468;-68
2023/05/28 05:38:10;;;;;;;7.33;7.13;;;12.40;99.90;;;;;;5039909;28;20556;-69
2023/05/28 05:40:39;;;;;;;7.10;6.90;;;12.50;99.90;;;;;;5038395;28;20977;-68
2023/05/28 05:43:06;;;;;;;8.37;8.07;;;12.70;99.90;;;;;;5040164;28;20498;-69
2023/05/28 05:45:33;;;;;;;9.47;9.07;;;12.90;99.90;;;;;;5039460;28;20517;-67
2023/05/28 05:48:00;;;;;;;8.90;8.50;;;13.00;99.90;;;;;;5040374;28;20459;-69
2023/05/28 05:50:28;;;;;;;9.23;8.73;;;13.20;99.90;;;;;;5047220;28;20490;-68
2023/05/28 05:52:55;;;;;;;10.30;9.70;;;13.40;99.90;;;;;;5046045;28;20543;-68
2023/05/28 05:55:22;;;;;;;8.13;7.83;;;13.50;99.90;;;;;;5038434;28;20464;-68
2023/05/28 05:57:50;;;;;;;8.10;7.80;;;13.70;99.90;;;;;;5047676;28;20495;-67
2023/05/28 06:00:18;;;;;;;9.70;9.30;;;13.80;99.90;;;;;;5035658;28;20548;-68
2023/05/28 06:02:45;;;;;;;10.63;9.93;;;14.00;99.90;;;;;;5037260;28;20824;-68
2023/05/28 06:05:12;;;;;;;10.07;9.57;;;14.10;99.90;;;;;;5045700;28;20529;-68
2023/05/28 06:07:39;;;;;;;10.37;9.87;;;14.20;99.90;;;;;;5040613;28;20460;-67
2023/05/28 06:10:07;;;;;;;9.70;9.40;;;14.40;99.90;;;;;;5037808;28;20474;-67
2023/05/28 06:12:34;;;;;;;21.97;12.00;;;14.50;99.90;;;;;;5041175;28;20464;-68
2023/05/28 06:15:03;;;;;;;10.07;9.47;;;14.60;99.90;;;;;;5041268;28;20586;-68
2023/05/28 06:17:31;;;;;;;11.10;10.30;;;14.90;99.90;;;;;;5043095;28;20483;-68
2023/05/28 06:19:59;;;;;;;10.93;10.43;;;15.00;99.90;;;;;;5043652;28;20569;-68
2023/05/28 06:22:28;;;;;;;10.17;9.77;;;15.10;99.90;;;;;;5043494;28;20579;-68
2023/05/28 06:24:55;;;;;;;11.10;10.70;;;15.30;99.90;;;;;;5039741;28;20873;-68
2023/05/28 06:27:24;;;;;;;10.30;9.90;;;15.40;99.90;;;;;;5038275;28;20558;-68
2023/05/28 06:30:08;;;;;;;11.23;10.73;;;15.60;99.90;;;;;;5045653;28;20896;-68
2023/05/28 06:32:35;;;;;;;11.20;10.80;;;15.80;99.90;;;;;;5042689;28;20870;-68
2023/05/28 06:35:04;;;;;;;10.77;10.37;;;15.90;99.90;;;;;;5038737;28;20452;-68
2023/05/28 06:37:30;;;;;;;10.80;10.40;;;16.00;99.90;;;;;;5034292;28;20487;-68
2023/05/28 06:39:57;;;;;;;11.33;10.93;;;16.20;99.90;;;;;;5038820;28;20859;-68
2023/05/28 06:42:24;;;;;;;11.57;11.17;;;16.30;99.90;;;;;;5034801;28;20553;-68
2023/05/28 06:44:51;;;;;;;11.40;11.00;;;16.50;99.90;;;;;;5034824;28;20463;-68
2023/05/28 06:47:20;;;;;;;12.13;11.63;;;16.70;99.90;;;;;;5039707;28;20472;-69
2023/05/28 06:49:47;;;;;;;11.60;11.20;;;17.00;99.90;;;;;;5041971;28;20462;-68
2023/05/28 06:52:15;;;;;;;12.87;12.27;;;17.20;99.90;;;;;;5038966;28;21114;-68
2023/05/28 06:54:41;;;;;;;12.47;11.97;;;17.20;99.90;;;;;;5044502;28;21209;-69
2023/05/28 06:57:08;;;;;;;11.83;11.43;;;17.40;99.90;;;;;;5042476;28;20496;-68
2023/05/28 06:59:35;;;;;;;12.30;11.80;;;17.30;99.90;;;;;;5038141;28;20464;-69
2023/05/28 07:02:04;;;;;;;12.40;11.90;;;17.40;99.90;;;;;;5044233;28;20463;-68
2023/05/28 07:04:33;;;;;;;12.40;11.90;;;17.60;99.90;;;;;;5044597;28;20468;-68
2023/05/28 07:07:00;;;;;;;12.67;12.17;;;17.80;99.90;;;;;;5037995;28;20448;-68
2023/05/28 07:09:28;;;;;;;12.50;12.00;;;17.90;99.90;;;;;;5038634;28;20876;-68
2023/05/28 07:11:55;;;;;;;12.47;11.97;;;18.20;99.90;;;;;;5041721;28;20859;-69
2023/05/28 07:14:22;;;;;;;12.60;12.10;;;18.10;99.90;;;;;;5037920;28;20475;-68
2023/05/28 07:16:49;;;;;;;12.60;12.10;;;18.20;99.90;;;;;;5040870;28;20514;-69
2023/05/28 07:19:16;;;;;;;13.13;12.63;;;18.30;99.90;;;;;;5033554;28;20480;-68
2023/05/28 07:21:47;;;;;;;12.50;12.00;;;18.30;99.90;;;;;;5044440;28;20461;-68
2023/05/28 07:24:15;;;;;;;12.37;11.87;;;18.50;99.90;;;;;;5046169;28;20466;-68
2023/05/28 07:26:42;;;;;;;12.57;12.07;;;18.70;99.90;;;;;;5045524;28;20525;-69
2023/05/28 07:29:09;;;;;;;12.80;12.30;;;18.80;99.90;;;;;;5044273;28;20464;-69
2023/05/28 07:31:38;;;;;;;12.40;11.90;;;18.90;99.90;;;;;;5042633;28;21045;-69
2023/05/28 07:34:05;;;;;;;12.53;12.03;;;19.00;99.90;;;;;;5036932;28;20463;-69
2023/05/28 07:36:32;;;;;;;14.27;13.57;;;19.20;99.90;;;;;;5038001;28;21260;-69
2023/05/28 07:39:01;;;;;;;12.63;12.13;;;19.20;99.90;;;;;;5047298;28;20476;-66
2023/05/28 07:41:28;;;;;;;12.50;12.00;;;19.50;99.90;;;;;;5041229;28;20456;-68
2023/05/28 07:43:55;;;;;;;12.80;12.30;;;19.80;99.90;;;;;;5046161;28;20526;-68
2023/05/28 07:46:23;;;;;;;14.27;13.60;;;19.80;99.90;;;;;;5038266;28;20464;-69
2023/05/28 07:48:50;;;;;;;13.33;12.77;;;19.90;99.90;;;;;;5042619;28;20460;-68
2023/05/28 07:51:18;;;;;;;13.50;12.90;;;20.00;99.90;;;;;;5042056;28;20499;-68
2023/05/28 07:53:45;;;;;;;12.93;12.43;;;20.10;99.90;;;;;;5036522;28;20472;-68
2023/05/28 07:56:13;;;;;;;12.70;12.20;;;20.20;99.90;;;;;;5040164;28;20487;-68
2023/05/28 07:58:45;;;;;;;13.80;13.20;;;20.50;99.90;;;;;;5035430;28;20503;-68
2023/05/28 08:01:13;;;;;;;13.10;12.60;;;20.60;99.90;;;;;;5038446;28;20803;-68
2023/05/28 08:03:41;;;;;;;12.90;12.40;;;20.80;99.90;;;;;;5042349;28;20468;-68
2023/05/28 08:06:08;;;;;;;13.17;12.67;;;21.10;99.90;;;;;;5040757;28;20462;-68
2023/05/28 08:08:35;;;;;;;13.57;13.00;;;21.40;99.90;;;;;;5038955;28;20470;-68
2023/05/28 08:11:02;;;;;;;13.63;12.90;;;21.60;99.90;;;;;;5036498;28;21523;-68
2023/05/28 08:13:32;;;;;;;12.90;12.40;;;22.00;99.90;;;;;;5036149;28;20955;-68
2023/05/28 08:16:00;;;;;;;13.30;12.70;;;22.80;99.90;;;;;;5044096;28;20456;-68
2023/05/28 08:18:27;;;;;;;13.30;12.80;;;23.40;99.90;;;;;;5033378;28;20499;-68
2023/05/28 08:20:54;;;;;;;12.80;12.30;;;23.70;99.90;;;;;;5038219;28;20541;-69
2023/05/28 08:23:21;;;;;;;13.17;12.67;;;24.40;99.90;;;;;;5040545;28;21393;-69
2023/05/28 08:25:48;;;;;;;13.50;13.00;;;25.20;99.90;;;;;;5035234;28;20491;-68
2023/05/28 08:28:18;;;;;;;12.90;12.40;;;25.10;99.20;;;;;;5040421;28;20862;-69
2023/05/28 08:30:46;;;;;;;13.93;13.33;;;25.20;98.70;;;;;;5041221;28;20562;-68
2023/05/28 08:33:13;;;;;;;13.87;13.27;;;25.30;98.00;;;;;;5035990;28;20496;-68
2023/05/28 08:35:40;;;;;;;14.27;13.57;;;25.80;96.10;;;;;;5033794;28;20815;-68
2023/05/28 08:38:08;;;;;;;14.10;13.50;;;25.90;94.10;;;;;;5030658;28;20493;-69
2023/05/28 08:40:40;;;;;;;13.90;13.30;;;25.80;93.70;;;;;;5031968;28;20465;-69
2023/05/28 08:43:08;;;;;;;13.40;12.90;;;25.90;93.70;;;;;;5042093;28;20485;-68
2023/05/28 08:45:37;;;;;;;13.73;13.13;;;26.30;94.80;;;;;;5034601;28;20515;-69
2023/05/28 08:48:06;;;;;;;14.97;14.27;;;26.20;93.20;;;;;;5037597;28;20711;-69
2023/05/28 08:50:38;;;;;;;15.17;14.47;;;26.80;92.20;;;;;;5035010;28;20959;-69
2023/05/28 08:53:08;;;;;;;13.43;12.93;;;26.60;91.40;;;;;;5040359;28;20459;-69
2023/05/28 08:55:35;;;;;;;14.93;14.23;;;26.70;90.90;;;;;;5044850;28;20517;-69
2023/05/28 08:58:03;;;;;;;13.53;13.03;;;26.10;89.30;;;;;;5033385;28;20495;-68
2023/05/28 09:00:31;;;;;;;14.53;13.93;;;25.90;88.80;;;;;;5039519;28;20469;-69
2023/05/28 09:02:58;;;;;;;13.60;13.00;;;25.90;87.60;;;;;;5035277;28;21147;-68
2023/05/28 09:05:26;;;;;;;13.90;13.30;;;26.20;90.00;;;;;;5040550;28;20478;-68
2023/05/28 09:07:53;;;;;;;16.20;14.73;;;25.90;90.20;;;;;;5036567;28;21408;-68
2023/05/28 09:10:20;;;;;;;14.33;13.73;;;26.00;84.30;;;;;;5037635;28;20828;-69
2023/05/28 09:12:58;;;;;;;15.83;15.13;;;26.10;83.10;;;;;;5043233;28;20518;-69
2023/05/28 09:15:25;;;;;;;14.37;13.70;;;26.70;84.40;;;;;;5033000;28;21009;-68
2023/05/28 09:17:52;;;;;;;14.10;13.50;;;27.30;83.10;;;;;;5037351;28;20498;-69
2023/05/28 09:20:19;;;;;;;14.93;14.23;;;27.70;81.40;;;;;;5032867;28;21002;-68
2023/05/28 09:22:58;;;;;;;14.93;14.03;;;28.10;78.20;;;;;;5038616;28;20465;-68
2023/05/28 09:25:25;;;;;;;15.23;14.30;;;28.00;75.70;;;;;;5039645;28;20947;-69
2023/05/28 09:27:53;;;;;;;14.20;13.60;;;27.90;76.60;;;;;;5035609;28;20494;-68
2023/05/28 09:30:22;;;;;;;15.30;14.50;;;28.20;74.50;;;;;;5041171;28;20971;-69
2023/05/28 09:32:57;;;;;;;14.07;13.47;;;28.70;73.00;;;;;;5033636;28;20862;-69
2023/05/28 09:35:26;;;;;;;14.27;13.67;;;28.40;73.40;;;;;;5033897;28;20464;-69
2023/05/28 09:38:02;;;;;;;14.13;13.53;;;28.50;73.70;;;;;;5029894;28;20577;-69
2023/05/28 09:40:29;;;;;;;14.63;13.93;;;28.40;72.30;;;;;;5038792;28;20492;-69
2023/05/28 09:42:57;;;;;;;15.07;14.27;;;28.10;69.50;;;;;;5035570;28;21138;-69
2023/05/28 09:45:25;;;;;;;13.60;13.00;;;27.90;67.70;;;;;;5035959;28;20475;-69
2023/05/28 09:47:52;;;;;;;14.37;13.77;;;27.60;70.50;;;;;;5030703;28;20597;-69
2023/05/28 09:50:19;;;;;;;14.93;14.33;;;28.30;70.70;;;;;;5035921;28;20737;-69
2023/05/28 09:52:47;;;;;;;14.57;13.87;;;28.20;68.80;;;;;;5037550;28;20468;-69
2023/05/28 09:55:18;;;;;;;13.47;12.97;;;28.50;71.60;;;;;;5037079;28;21014;-69
2023/05/28 09:57:56;;;;;;;14.50;13.70;;;28.80;69.40;;;;;;5033547;28;20484;-69
2023/05/28 10:00:30;;;;;;;14.83;14.13;;;29.00;66.60;;;;;;5035340;28;20532;-69
2023/05/28 10:03:09;;;;;;;13.57;13.07;;;28.60;65.50;;;;;;5033743;28;20463;-69
2023/05/28 10:05:39;;;;;;;14.20;13.60;;;28.80;66.20;;;;;;5032879;28;20464;-69
2023/05/28 10:08:07;;;;;;;14.00;13.30;;;28.90;64.60;;;;;;5031217;28;20467;-69
2023/05/28 10:10:36;;;;;;;14.83;14.03;;;29.70;64.10;;;;;;5028830;28;20459;-69
2023/05/28 10:13:03;;;;;;;14.40;13.80;;;29.60;64.20;;;;;;5033925;28;21016;-69
2023/05/28 10:15:29;;;;;;;13.67;13.17;;;29.60;65.00;;;;;;5032861;28;20460;-69
2023/05/28 10:17:57;;;;;;;13.83;13.33;;;29.30;62.50;;;;;;5032445;28;20526;-69
2023/05/28 10:20:25;;;;;;;13.70;13.20;;;29.10;60.20;;;;;;5033529;28;20541;-69
2023/05/28 10:22:52;;;;;;;14.97;14.03;;;29.70;59.40;;;;;;5032987;28;21318;-69
2023/05/28 10:25:19;;;;;;;13.80;12.93;;;29.60;59.70;;;;;;5047857;28;20475;-69
2023/05/28 10:27:49;;;;;;;13.80;13.20;;;29.60;59.90;;;;;;5039640;28;21117;-69
2023/05/28 10:30:34;;;;;;;13.33;12.83;;;30.10;59.40;;;;;;5031592;28;20479;-69
2023/05/28 10:33:04;;;;;;;14.10;13.50;;;30.20;59.80;;;;;;5034055;28;20515;-69
2023/05/28 10:35:33;;;;;;;14.07;13.27;;;30.90;58.10;;;;;;5036586;28;20456;-69
2023/05/28 10:38:04;;;;;;;15.37;14.33;;;30.10;57.10;;;;;;5035736;28;20480;-69
2023/05/28 10:40:33;;;;;;;13.20;12.70;;;30.20;56.90;;;;;;5033431;28;20478;-69
2023/05/28 10:43:01;;;;;;;14.53;13.93;;;30.60;57.00;;;;;;5035559;28;20510;-69
2023/05/28 10:45:48;;;;;;;14.20;13.50;;;29.90;58.40;;;;;;5038533;28;20794;-69
2023/05/28 10:48:16;;;;;;;13.00;12.50;;;30.30;56.90;;;;;;5037581;28;21032;-69
2023/05/28 10:50:58;;;;;;;13.70;13.07;;;30.30;53.20;;;;;;5039407;28;20464;-69
2023/05/28 10:53:26;;;;;;;13.40;12.90;;;29.90;55.60;;;;;;5041011;28;20461;-69
2023/05/28 10:55:54;;;;;;;12.60;12.10;;;30.40;57.80;;;;;;5040412;28;20575;-69
2023/05/28 10:58:27;;;;;;;14.10;13.50;;;31.20;56.70;;;;;;5038097;28;20954;-69
2023/05/28 11:01:01;;;;;;;14.07;13.47;;;32.00;54.80;;;;;;5032784;28;20472;-69
2023/05/28 11:03:42;;;;;;;14.67;13.97;;;31.40;53.30;;;;;;5037779;28;20462;-69
2023/05/28 11:06:10;;;;;;;14.63;13.83;;;31.20;54.10;;;;;;5036267;28;20463;-69
2023/05/28 11:08:42;;;;;;;13.80;13.20;;;30.60;52.60;;;;;;5044277;28;20972;-69
2023/05/28 11:11:11;;;;;;;14.50;13.80;;;31.00;55.00;;;;;;5038552;28;20500;-69
2023/05/28 11:13:42;;;;;;;14.23;13.53;;;30.70;55.40;;;;;;5036912;28;20865;-69
2023/05/28 11:16:10;;;;;;;14.60;14.00;;;29.80;56.00;;;;;;5036480;28;20510;-69
2023/05/28 11:18:37;;;;;;;13.90;13.30;;;28.50;57.80;;;;;;5042566;28;20475;-69
2023/05/28 11:21:07;;;;;;;14.43;13.83;;;27.50;59.80;;;;;;5043595;28;20496;-69
2023/05/28 11:23:34;;;;;;;13.37;12.87;;;27.30;60.20;;;;;;5033202;28;20473;-69
2023/05/28 11:26:01;;;;;;;13.60;12.93;;;27.10;60.20;;;;;;5034550;28;20985;-69
2023/05/28 11:28:28;;;;;;;15.53;14.23;;;28.00;61.30;;;;;;5035053;28;20488;-69
2023/05/28 11:30:59;;;;;;;13.90;13.33;;;28.60;58.00;;;;;;5040796;28;20467;-69
2023/05/28 11:33:30;;;;;;;14.30;13.70;;;28.20;58.30;;;;;;5044186;28;20557;-69
2023/05/28 11:36:00;;;;;;;15.57;14.77;;;28.70;56.60;;;;;;5038485;28;20490;-69
2023/05/28 11:38:28;;;;;;;15.03;14.33;;;28.90;56.80;;;;;;5038530;28;20507;-69
2023/05/28 11:41:02;;;;;;;14.40;13.60;;;29.50;56.30;;;;;;5040681;28;20538;-69
2023/05/28 11:43:29;;;;;;;15.43;14.80;;;30.40;55.30;;;;;;5033422;28;20473;-69
2023/05/28 11:46:00;;;;;;;15.20;14.50;;;30.80;53.20;;;;;;5033184;28;21327;-69
2023/05/28 11:48:28;;;;;;;15.73;14.30;;;31.20;52.90;;;;;;5039396;28;20959;-69
2023/05/28 11:51:01;;;;;;;15.00;14.30;;;31.20;52.70;;;;;;5042024;28;20461;-69
2023/05/28 11:53:47;;;;;;;17.03;15.43;;;31.20;53.70;;;;;;5033236;28;21037;-69
2023/05/28 11:56:14;;;;;;;15.40;14.60;;;31.50;53.00;;;;;;5032242;28;20468;-69
2023/05/28 11:58:48;;;;;;;14.80;14.10;;;31.80;52.60;;;;;;5039552;28;20562;-69
2023/05/28 12:01:17;;;;;;;15.17;14.47;;;31.90;51.50;;;;;;5038934;28;20529;-69
2023/05/28 12:03:44;;;;;;;13.97;13.37;;;31.80;50.70;;;;;;5038667;28;20528;-69
2023/05/28 12:06:13;;;;;;;13.87;13.30;;;31.80;50.80;;;;;;5041539;28;20985;-70
2023/05/28 12:08:41;;;;;;;14.43;13.83;;;32.80;50.20;;;;;;5034431;28;20465;-69
2023/05/28 12:11:09;;;;;;;14.10;13.50;;;32.30;48.30;;;;;;5038384;28;20466;-69
2023/05/28 12:13:37;;;;;;;13.50;13.00;;;32.20;49.00;;;;;;5041351;28;20939;-69
2023/05/28 12:16:09;;;;;;;13.90;13.30;;;32.40;48.60;;;;;;5041203;28;20463;-69
2023/05/28 12:18:42;;;;;;;13.60;13.10;;;33.20;48.10;;;;;;5039602;28;20982;-69
2023/05/28 12:21:13;;;;;;;15.50;14.40;;;33.80;47.90;;;;;;5038353;28;20496;-69
2023/05/28 12:23:41;;;;;;;14.17;13.27;;;34.20;48.10;;;;;;5040325;28;20476;-69
2023/05/28 12:26:11;;;;;;;12.83;12.33;;;33.00;48.00;;;;;;5036895;28;20467;-69
2023/05/28 12:28:40;;;;;;;14.23;13.20;;;33.40;48.40;;;;;;5032605;28;20485;-69
2023/05/28 12:31:08;;;;;;;13.10;12.60;;;34.50;48.30;;;;;;5040498;28;20467;-69
2023/05/28 12:33:36;;;;;;;12.83;12.33;;;33.80;46.60;;;;;;5041796;28;20460;-69
2023/05/28 12:36:05;;;;;;;14.07;13.33;;;34.20;46.20;;;;;;5037227;28;20471;-69
2023/05/28 12:38:32;;;;;;;13.40;12.90;;;34.10;46.10;;;;;;5039212;28;20559;-69
2023/05/28 12:41:00;;;;;;;13.10;12.60;;;33.20;46.80;;;;;;5037948;28;20495;-69